sensor_id;sensor_type;location;lat;lon;timestamp;pressure;altitude;pressure_sealevel;temperature;humidity
9538;BME280;4807;48.024;11.726;2023-02-28T00:00:49;95377.97;;;-4.28;77.46
9538;BME280;4807;48.024;11.726;2023-02-28T00:03:58;95387.94;;;-4.34;78.49
9538;BME280;4807;48.024;11.726;2023-02-28T00:07:06;95376.19;;;-4.27;77.84
9538;BME280;4807;48.024;11.726;2023-02-28T00:10:20;95377.06;;;-4.53;78.79
9538;BME280;4807;48.024;11.726;2023-02-28T00:13:29;95379.56;;;-4.52;78.62
9538;BME280;4807;48.024;11.726;2023-02-28T00:16:38;95377.88;;;-4.66;78.40
9538;BME280;4807;48.024;11.726;2023-02-28T00:19:47;95374.97;;;-4.61;78.73
9538;BME280;4807;48.024;11.726;2023-02-28T00:22:55;95368.25;;;-4.51;78.13
9538;BME280;4807;48.024;11.726;2023-02-28T00:26:06;95369.78;;;-4.61;78.60
9538;BME280;4807;48.024;11.726;2023-02-28T00:29:16;95368.34;;;-4.52;78.63
9538;BME280;4807;48.024;11.726;2023-02-28T00:32:25;95360.53;;;-4.65;78.44
9538;BME280;4807;48.024;11.726;2023-02-28T00:35:34;95359.09;;;-4.56;78.63
9538;BME280;4807;48.024;11.726;2023-02-28T00:38:42;95360.03;;;-4.57;78.13
9538;BME280;4807;48.024;11.726;2023-02-28T00:41:52;95355.41;;;-4.67;78.67
9538;BME280;4807;48.024;11.726;2023-02-28T00:45:00;95357.75;;;-4.62;78.03
9538;BME280;4807;48.024;11.726;2023-02-28T00:48:10;95359.19;;;-4.58;78.14
9538;BME280;4807;48.024;11.726;2023-02-28T00:51:18;95355.81;;;-4.46;77.28
9538;BME280;4807;48.024;11.726;2023-02-28T00:54:27;95362.13;;;-4.50;77.80
9538;BME280;4807;48.024;11.726;2023-02-28T00:57:37;95352.75;;;-4.52;77.75
9538;BME280;4807;48.024;11.726;2023-02-28T01:00:45;95354.84;;;-4.45;77.54
9538;BME280;4807;48.024;11.726;2023-02-28T01:03:55;95350.28;;;-4.54;77.72
9538;BME280;4807;48.024;11.726;2023-02-28T01:07:04;95351.88;;;-4.66;78.18
9538;BME280;4807;48.024;11.726;2023-02-28T01:10:13;95354.31;;;-4.50;77.56
9538;BME280;4807;48.024;11.726;2023-02-28T01:13:23;95352.66;;;-4.51;77.96
9538;BME280;4807;48.024;11.726;2023-02-28T01:16:32;95350.31;;;-4.68;77.96
9538;BME280;4807;48.024;11.726;2023-02-28T01:19:42;95344.78;;;-4.76;78.85
9538;BME280;4807;48.024;11.726;2023-02-28T01:22:50;95345.94;;;-4.80;78.77
9538;BME280;4807;48.024;11.726;2023-02-28T01:26:04;95349.78;;;-4.73;78.03
9538;BME280;4807;48.024;11.726;2023-02-28T01:29:15;95349.44;;;-4.81;78.92
9538;BME280;4807;48.024;11.726;2023-02-28T01:32:23;95336.28;;;-4.78;78.78
9538;BME280;4807;48.024;11.726;2023-02-28T01:35:33;95342.06;;;-4.87;79.41
9538;BME280;4807;48.024;11.726;2023-02-28T01:38:41;95332.63;;;-4.76;78.74
9538;BME280;4807;48.024;11.726;2023-02-28T01:41:50;95338.91;;;-4.92;79.49
9538;BME280;4807;48.024;11.726;2023-02-28T01:45:14;95325.22;;;-4.94;79.75
9538;BME280;4807;48.024;11.726;2023-02-28T01:48:32;95329.84;;;-5.00;79.73
9538;BME280;4807;48.024;11.726;2023-02-28T01:51:44;95319.13;;;-5.08;79.77
9538;BME280;4807;48.024;11.726;2023-02-28T01:55:01;95317.88;;;-5.02;79.36
9538;BME280;4807;48.024;11.726;2023-02-28T01:58:11;95325.41;;;-4.97;80.23
9538;BME280;4807;48.024;11.726;2023-02-28T02:01:23;95322.63;;;-5.09;80.21
9538;BME280;4807;48.024;11.726;2023-02-28T02:04:40;95320.97;;;-5.10;80.22
9538;BME280;4807;48.024;11.726;2023-02-28T02:07:56;95318.84;;;-5.03;79.83
9538;BME280;4807;48.024;11.726;2023-02-28T02:11:09;95322.38;;;-5.18;80.63
9538;BME280;4807;48.024;11.726;2023-02-28T02:14:37;95323.13;;;-5.16;81.08
9538;BME280;4807;48.024;11.726;2023-02-28T02:17:56;95316.22;;;-5.30;80.66
9538;BME280;4807;48.024;11.726;2023-02-28T02:22:05;95312.13;;;-5.20;81.03
9538;BME280;4807;48.024;11.726;2023-02-28T02:25:29;95320.28;;;-5.26;81.56
9538;BME280;4807;48.024;11.726;2023-02-28T02:29:10;95320.63;;;-5.18;80.89
9538;BME280;4807;48.024;11.726;2023-02-28T02:33:04;95315.44;;;-5.18;80.57
9538;BME280;4807;48.024;11.726;2023-02-28T02:36:23;95311.00;;;-5.16;80.76
9538;BME280;4807;48.024;11.726;2023-02-28T02:39:42;95313.19;;;-5.10;80.65
9538;BME280;4807;48.024;11.726;2023-02-28T02:43:01;95308.03;;;-5.24;81.36
9538;BME280;4807;48.024;11.726;2023-02-28T02:46:17;95314.84;;;-5.09;80.56
9538;BME280;4807;48.024;11.726;2023-02-28T02:49:32;95320.28;;;-5.26;81.68
9538;BME280;4807;48.024;11.726;2023-02-28T02:52:48;95313.16;;;-5.22;82.00
9538;BME280;4807;48.024;11.726;2023-02-28T02:56:00;95312.06;;;-5.06;81.38
9538;BME280;4807;48.024;11.726;2023-02-28T02:59:15;95310.19;;;-5.30;82.04
9538;BME280;4807;48.024;11.726;2023-02-28T03:02:29;95310.06;;;-5.15;81.78
9538;BME280;4807;48.024;11.726;2023-02-28T03:05:46;95297.22;;;-5.30;81.26
9538;BME280;4807;48.024;11.726;2023-02-28T03:08:56;95304.91;;;-5.29;82.12
9538;BME280;4807;48.024;11.726;2023-02-28T03:12:09;95306.59;;;-5.28;81.54
9538;BME280;4807;48.024;11.726;2023-02-28T03:15:25;95302.38;;;-5.16;81.79
9538;BME280;4807;48.024;11.726;2023-02-28T03:18:48;95299.50;;;-5.26;82.07
9538;BME280;4807;48.024;11.726;2023-02-28T03:22:16;95307.91;;;-5.49;82.82
9538;BME280;4807;48.024;11.726;2023-02-28T03:25:56;95303.44;;;-5.33;82.36
9538;BME280;4807;48.024;11.726;2023-02-28T03:29:13;95304.41;;;-5.48;82.56
9538;BME280;4807;48.024;11.726;2023-02-28T03:32:29;95303.66;;;-5.50;82.07
9538;BME280;4807;48.024;11.726;2023-02-28T03:35:45;95305.97;;;-5.46;82.84
9538;BME280;4807;48.024;11.726;2023-02-28T03:39:00;95302.47;;;-5.59;82.66
9538;BME280;4807;48.024;11.726;2023-02-28T03:42:17;95307.09;;;-5.50;82.65
9538;BME280;4807;48.024;11.726;2023-02-28T03:45:29;95315.91;;;-5.52;82.40
9538;BME280;4807;48.024;11.726;2023-02-28T03:48:43;95316.75;;;-5.66;82.81
9538;BME280;4807;48.024;11.726;2023-02-28T03:51:53;95318.63;;;-5.68;82.96
9538;BME280;4807;48.024;11.726;2023-02-28T03:55:10;95315.84;;;-5.79;82.82
9538;BME280;4807;48.024;11.726;2023-02-28T03:58:27;95319.03;;;-5.88;83.13
9538;BME280;4807;48.024;11.726;2023-02-28T04:01:41;95328.84;;;-5.93;83.48
9538;BME280;4807;48.024;11.726;2023-02-28T04:04:50;95332.44;;;-5.96;82.98
9538;BME280;4807;48.024;11.726;2023-02-28T04:08:04;95334.88;;;-5.93;83.51
9538;BME280;4807;48.024;11.726;2023-02-28T04:11:22;95339.41;;;-5.96;83.52
9538;BME280;4807;48.024;11.726;2023-02-28T04:14:32;95350.31;;;-6.05;83.79
9538;BME280;4807;48.024;11.726;2023-02-28T04:17:40;95345.47;;;-5.83;84.05
9538;BME280;4807;48.024;11.726;2023-02-28T04:20:48;95347.88;;;-5.80;83.54
9538;BME280;4807;48.024;11.726;2023-02-28T04:23:57;95347.63;;;-5.75;83.46
9538;BME280;4807;48.024;11.726;2023-02-28T04:27:08;95345.13;;;-5.77;83.46
9538;BME280;4807;48.024;11.726;2023-02-28T04:30:19;95347.78;;;-5.64;82.97
9538;BME280;4807;48.024;11.726;2023-02-28T04:33:27;95341.09;;;-5.83;83.26
9538;BME280;4807;48.024;11.726;2023-02-28T04:36:35;95345.75;;;-5.73;82.66
9538;BME280;4807;48.024;11.726;2023-02-28T04:39:44;95346.66;;;-5.74;82.39
9538;BME280;4807;48.024;11.726;2023-02-28T04:42:52;95346.09;;;-5.65;81.80
9538;BME280;4807;48.024;11.726;2023-02-28T04:46:05;95357.09;;;-5.89;82.16
9538;BME280;4807;48.024;11.726;2023-02-28T04:49:13;95346.34;;;-6.11;82.88
9538;BME280;4807;48.024;11.726;2023-02-28T04:52:22;95358.34;;;-6.24;83.68
9538;BME280;4807;48.024;11.726;2023-02-28T04:55:30;95358.38;;;-6.10;83.65
9538;BME280;4807;48.024;11.726;2023-02-28T04:58:39;95356.78;;;-6.27;83.97
9538;BME280;4807;48.024;11.726;2023-02-28T05:01:49;95353.78;;;-6.35;83.83
9538;BME280;4807;48.024;11.726;2023-02-28T05:04:57;95362.19;;;-6.31;83.29
9538;BME280;4807;48.024;11.726;2023-02-28T05:08:06;95366.84;;;-6.22;83.34
9538;BME280;4807;48.024;11.726;2023-02-28T05:11:18;95370.75;;;-5.87;82.77
9538;BME280;4807;48.024;11.726;2023-02-28T05:14:26;95366.69;;;-6.05;82.98
9538;BME280;4807;48.024;11.726;2023-02-28T05:17:36;95372.22;;;-5.83;82.04
9538;BME280;4807;48.024;11.726;2023-02-28T05:20:44;95369.84;;;-5.86;83.12
9538;BME280;4807;48.024;11.726;2023-02-28T05:23:53;95369.53;;;-5.81;83.16
9538;BME280;4807;48.024;11.726;2023-02-28T05:27:03;95368.00;;;-5.69;82.77
9538;BME280;4807;48.024;11.726;2023-02-28T05:30:12;95381.31;;;-5.61;82.51
9538;BME280;4807;48.024;11.726;2023-02-28T05:33:21;95377.78;;;-5.46;82.56
9538;BME280;4807;48.024;11.726;2023-02-28T05:36:31;95382.00;;;-5.17;81.35
9538;BME280;4807;48.024;11.726;2023-02-28T05:39:42;95378.69;;;-5.19;81.53
9538;BME280;4807;48.024;11.726;2023-02-28T05:42:50;95374.50;;;-5.21;81.48
9538;BME280;4807;48.024;11.726;2023-02-28T05:46:01;95380.97;;;-5.14;81.41
9538;BME280;4807;48.024;11.726;2023-02-28T05:49:11;95372.91;;;-5.10;81.88
9538;BME280;4807;48.024;11.726;2023-02-28T05:52:19;95381.63;;;-5.11;81.46
9538;BME280;4807;48.024;11.726;2023-02-28T05:55:27;95381.59;;;-4.96;81.67
9538;BME280;4807;48.024;11.726;2023-02-28T05:58:36;95383.78;;;-4.90;81.91
9538;BME280;4807;48.024;11.726;2023-02-28T06:01:45;95391.09;;;-4.83;81.81
9538;BME280;4807;48.024;11.726;2023-02-28T06:04:56;95396.47;;;-4.72;81.52
9538;BME280;4807;48.024;11.726;2023-02-28T06:08:05;95392.53;;;-4.65;81.52
9538;BME280;4807;48.024;11.726;2023-02-28T06:11:14;95399.44;;;-4.51;81.13
9538;BME280;4807;48.024;11.726;2023-02-28T06:14:22;95398.97;;;-4.31;80.08
9538;BME280;4807;48.024;11.726;2023-02-28T06:17:30;95405.53;;;-4.25;80.81
9538;BME280;4807;48.024;11.726;2023-02-28T06:20:40;95404.34;;;-4.07;79.43
9538;BME280;4807;48.024;11.726;2023-02-28T06:23:49;95405.88;;;-4.04;80.45
9538;BME280;4807;48.024;11.726;2023-02-28T06:26:58;95405.06;;;-3.92;80.10
9538;BME280;4807;48.024;11.726;2023-02-28T06:30:12;95410.59;;;-3.84;79.32
9538;BME280;4807;48.024;11.726;2023-02-28T06:33:21;95406.31;;;-3.72;80.52
9538;BME280;4807;48.024;11.726;2023-02-28T06:36:30;95416.03;;;-3.49;79.09
9538;BME280;4807;48.024;11.726;2023-02-28T06:39:38;95414.03;;;-3.46;80.18
9538;BME280;4807;48.024;11.726;2023-02-28T06:42:47;95420.69;;;-3.29;78.28
9538;BME280;4807;48.024;11.726;2023-02-28T06:45:56;95427.97;;;-3.21;78.68
9538;BME280;4807;48.024;11.726;2023-02-28T06:49:04;95428.38;;;-3.15;78.90
9538;BME280;4807;48.024;11.726;2023-02-28T06:52:17;95417.50;;;-2.96;77.86
9538;BME280;4807;48.024;11.726;2023-02-28T06:55:25;95430.81;;;-2.88;77.42
9538;BME280;4807;48.024;11.726;2023-02-28T06:58:36;95426.75;;;-2.79;77.17
9538;BME280;4807;48.024;11.726;2023-02-28T07:01:46;95429.25;;;-2.78;77.22
9538;BME280;4807;48.024;11.726;2023-02-28T07:04:54;95438.28;;;-2.71;77.49
9538;BME280;4807;48.024;11.726;2023-02-28T07:08:05;95439.25;;;-2.48;76.26
9538;BME280;4807;48.024;11.726;2023-02-28T07:11:14;95440.16;;;-2.36;76.05
9538;BME280;4807;48.024;11.726;2023-02-28T07:14:22;95442.97;;;-2.39;74.05
9538;BME280;4807;48.024;11.726;2023-02-28T07:17:30;95438.03;;;-2.31;74.87
9538;BME280;4807;48.024;11.726;2023-02-28T07:20:38;95439.50;;;-2.27;74.01
9538;BME280;4807;48.024;11.726;2023-02-28T07:23:49;95429.72;;;-2.12;74.54
9538;BME280;4807;48.024;11.726;2023-02-28T07:26:57;95441.56;;;-2.08;72.92
9538;BME280;4807;48.024;11.726;2023-02-28T07:30:08;95439.84;;;-1.97;72.72
9538;BME280;4807;48.024;11.726;2023-02-28T07:33:17;95440.22;;;-1.90;72.42
9538;BME280;4807;48.024;11.726;2023-02-28T07:36:26;95436.72;;;-2.02;72.68
9538;BME280;4807;48.024;11.726;2023-02-28T07:39:36;95449.38;;;-1.84;73.26
9538;BME280;4807;48.024;11.726;2023-02-28T07:42:44;95433.06;;;-1.53;72.09
9538;BME280;4807;48.024;11.726;2023-02-28T07:46:01;95433.53;;;-1.59;71.11
9538;BME280;4807;48.024;11.726;2023-02-28T07:49:09;95436.41;;;-1.51;71.44
9538;BME280;4807;48.024;11.726;2023-02-28T07:52:18;95439.41;;;-1.33;71.05
9538;BME280;4807;48.024;11.726;2023-02-28T07:55:28;95448.59;;;-1.05;70.99
9538;BME280;4807;48.024;11.726;2023-02-28T07:58:36;95448.31;;;-1.02;69.16
9538;BME280;4807;48.024;11.726;2023-02-28T08:01:45;95450.94;;;-1.25;69.79
9538;BME280;4807;48.024;11.726;2023-02-28T08:04:53;95449.97;;;-1.46;70.10
9538;BME280;4807;48.024;11.726;2023-02-28T08:08:01;95449.97;;;-1.12;70.50
9538;BME280;4807;48.024;11.726;2023-02-28T08:11:12;95461.59;;;-1.28;70.16
9538;BME280;4807;48.024;11.726;2023-02-28T08:14:22;95456.63;;;-1.20;69.95
9538;BME280;4807;48.024;11.726;2023-02-28T08:17:30;95458.56;;;-0.99;69.90
9538;BME280;4807;48.024;11.726;2023-02-28T08:20:41;95456.03;;;-0.79;68.25
9538;BME280;4807;48.024;11.726;2023-02-28T08:23:50;95454.75;;;-0.73;67.73
9538;BME280;4807;48.024;11.726;2023-02-28T08:27:00;95457.59;;;-0.65;68.33
9538;BME280;4807;48.024;11.726;2023-02-28T08:30:11;95451.63;;;-0.45;67.12
9538;BME280;4807;48.024;11.726;2023-02-28T08:33:21;95457.47;;;-0.63;67.78
9538;BME280;4807;48.024;11.726;2023-02-28T08:36:29;95468.25;;;-0.34;67.14
9538;BME280;4807;48.024;11.726;2023-02-28T08:39:38;95463.63;;;-0.42;67.21
9538;BME280;4807;48.024;11.726;2023-02-28T08:42:48;95472.97;;;-0.28;65.68
9538;BME280;4807;48.024;11.726;2023-02-28T08:45:56;95476.56;;;-0.29;65.88
9538;BME280;4807;48.024;11.726;2023-02-28T08:49:05;95475.75;;;0.02;65.94
9538;BME280;4807;48.024;11.726;2023-02-28T08:52:14;95475.34;;;0.18;65.39
9538;BME280;4807;48.024;11.726;2023-02-28T08:55:23;95475.59;;;0.15;63.64
9538;BME280;4807;48.024;11.726;2023-02-28T08:58:34;95483.78;;;-0.11;65.78
9538;BME280;4807;48.024;11.726;2023-02-28T09:01:42;95489.75;;;-0.31;65.49
9538;BME280;4807;48.024;11.726;2023-02-28T09:04:51;95492.34;;;0.23;66.02
9538;BME280;4807;48.024;11.726;2023-02-28T09:08:00;95494.44;;;0.41;64.38
9538;BME280;4807;48.024;11.726;2023-02-28T09:11:09;95486.19;;;0.45;63.30
9538;BME280;4807;48.024;11.726;2023-02-28T09:14:19;95489.66;;;0.87;62.65
9538;BME280;4807;48.024;11.726;2023-02-28T09:17:28;95495.13;;;0.84;62.10
9538;BME280;4807;48.024;11.726;2023-02-28T09:20:38;95490.00;;;0.83;62.44
9538;BME280;4807;48.024;11.726;2023-02-28T09:23:50;95492.69;;;1.13;62.74
9538;BME280;4807;48.024;11.726;2023-02-28T09:26:58;95495.44;;;1.42;61.31
9538;BME280;4807;48.024;11.726;2023-02-28T09:30:14;95499.16;;;1.09;60.10
9538;BME280;4807;48.024;11.726;2023-02-28T09:33:23;95503.53;;;1.29;61.49
9538;BME280;4807;48.024;11.726;2023-02-28T09:36:31;95501.78;;;1.39;60.33
9538;BME280;4807;48.024;11.726;2023-02-28T09:39:51;95512.69;;;1.35;59.38
9538;BME280;4807;48.024;11.726;2023-02-28T09:43:00;95515.81;;;1.29;61.07
9538;BME280;4807;48.024;11.726;2023-02-28T09:46:24;95512.06;;;1.22;60.12
9538;BME280;4807;48.024;11.726;2023-02-28T09:49:40;95511.44;;;0.88;62.62
9538;BME280;4807;48.024;11.726;2023-02-28T09:52:50;95516.78;;;1.28;61.02
9538;BME280;4807;48.024;11.726;2023-02-28T09:56:03;95513.09;;;1.40;60.93
9538;BME280;4807;48.024;11.726;2023-02-28T09:59:28;95525.94;;;0.92;61.65
9538;BME280;4807;48.024;11.726;2023-02-28T10:03:14;95528.25;;;0.64;62.79
9538;BME280;4807;48.024;11.726;2023-02-28T10:06:33;95535.50;;;0.40;63.48
9538;BME280;4807;48.024;11.726;2023-02-28T10:09:47;95541.81;;;0.37;64.38
9538;BME280;4807;48.024;11.726;2023-02-28T10:13:00;95543.16;;;0.85;63.00
9538;BME280;4807;48.024;11.726;2023-02-28T10:16:15;95532.78;;;1.25;60.72
9538;BME280;4807;48.024;11.726;2023-02-28T10:19:32;95545.53;;;1.29;60.44
9538;BME280;4807;48.024;11.726;2023-02-28T10:22:53;95532.06;;;1.23;60.32
9538;BME280;4807;48.024;11.726;2023-02-28T10:26:13;95534.13;;;1.19;60.54
9538;BME280;4807;48.024;11.726;2023-02-28T10:29:23;95548.13;;;0.67;62.66
9538;BME280;4807;48.024;11.726;2023-02-28T10:32:34;95554.34;;;1.07;62.09
9538;BME280;4807;48.024;11.726;2023-02-28T10:35:45;95546.34;;;1.30;60.96
9538;BME280;4807;48.024;11.726;2023-02-28T10:38:54;95541.72;;;1.22;61.73
9538;BME280;4807;48.024;11.726;2023-02-28T10:42:03;95548.78;;;1.01;63.17
9538;BME280;4807;48.024;11.726;2023-02-28T10:45:15;95544.88;;;1.16;60.66
9538;BME280;4807;48.024;11.726;2023-02-28T10:48:32;95551.84;;;0.85;62.23
9538;BME280;4807;48.024;11.726;2023-02-28T10:51:42;95562.00;;;1.71;60.57
9538;BME280;4807;48.024;11.726;2023-02-28T10:55:15;95565.75;;;2.18;58.16
9538;BME280;4807;48.024;11.726;2023-02-28T10:58:30;95563.22;;;2.07;57.68
9538;BME280;4807;48.024;11.726;2023-02-28T11:01:42;95561.22;;;2.30;56.45
9538;BME280;4807;48.024;11.726;2023-02-28T11:04:55;95566.25;;;2.81;55.12
9538;BME280;4807;48.024;11.726;2023-02-28T11:08:13;95563.88;;;3.07;53.95
9538;BME280;4807;48.024;11.726;2023-02-28T11:11:26;95558.06;;;2.65;54.55
9538;BME280;4807;48.024;11.726;2023-02-28T11:14:46;95568.25;;;1.49;58.07
9538;BME280;4807;48.024;11.726;2023-02-28T11:17:59;95573.69;;;0.54;61.43
9538;BME280;4807;48.024;11.726;2023-02-28T11:21:16;95576.81;;;0.68;62.84
9538;BME280;4807;48.024;11.726;2023-02-28T11:24:29;95577.69;;;0.58;62.60
9538;BME280;4807;48.024;11.726;2023-02-28T11:27:48;95567.78;;;0.72;62.69
9538;BME280;4807;48.024;11.726;2023-02-28T11:31:04;95560.44;;;1.29;60.52
9538;BME280;4807;48.024;11.726;2023-02-28T11:34:26;95560.44;;;1.38;60.50
9538;BME280;4807;48.024;11.726;2023-02-28T11:37:35;95547.44;;;1.06;61.30
9538;BME280;4807;48.024;11.726;2023-02-28T11:40:55;95545.09;;;1.03;61.86
9538;BME280;4807;48.024;11.726;2023-02-28T11:44:32;95546.09;;;0.91;60.16
9538;BME280;4807;48.024;11.726;2023-02-28T11:47:53;95540.22;;;0.78;61.53
9538;BME280;4807;48.024;11.726;2023-02-28T11:51:15;95538.66;;;1.17;62.00
9538;BME280;4807;48.024;11.726;2023-02-28T11:55:11;95537.50;;;1.31;60.81
9538;BME280;4807;48.024;11.726;2023-02-28T11:58:42;95539.78;;;1.45;61.14
9538;BME280;4807;48.024;11.726;2023-02-28T12:02:31;95540.94;;;1.52;61.12
9538;BME280;4807;48.024;11.726;2023-02-28T12:05:49;95528.69;;;1.72;60.18
9538;BME280;4807;48.024;11.726;2023-02-28T12:09:17;95531.22;;;2.33;58.62
9538;BME280;4807;48.024;11.726;2023-02-28T12:12:42;95525.88;;;1.94;57.52
9538;BME280;4807;48.024;11.726;2023-02-28T12:16:26;95523.88;;;2.36;59.27
9538;BME280;4807;48.024;11.726;2023-02-28T12:19:48;95528.16;;;2.18;58.31
9538;BME280;4807;48.024;11.726;2023-02-28T12:23:43;95515.66;;;2.01;58.95
9538;BME280;4807;48.024;11.726;2023-02-28T12:27:00;95508.06;;;2.07;59.91
9538;BME280;4807;48.024;11.726;2023-02-28T12:30:17;95511.84;;;2.24;60.05
9538;BME280;4807;48.024;11.726;2023-02-28T12:37:37;95512.53;;;2.36;58.69
9538;BME280;4807;48.024;11.726;2023-02-28T12:40:53;95507.44;;;2.63;58.39
9538;BME280;4807;48.024;11.726;2023-02-28T12:44:09;95505.22;;;2.49;58.13
9538;BME280;4807;48.024;11.726;2023-02-28T12:47:19;95490.25;;;2.30;58.06
9538;BME280;4807;48.024;11.726;2023-02-28T12:50:29;95495.22;;;2.14;58.28
9538;BME280;4807;48.024;11.726;2023-02-28T12:53:55;95508.81;;;1.69;59.95
9538;BME280;4807;48.024;11.726;2023-02-28T12:57:13;95503.41;;;1.61;60.72
9538;BME280;4807;48.024;11.726;2023-02-28T13:00:33;95505.34;;;1.69;60.78
9538;BME280;4807;48.024;11.726;2023-02-28T13:04:13;95500.03;;;1.49;61.06
9538;BME280;4807;48.024;11.726;2023-02-28T13:08:16;95503.75;;;1.47;62.00
9538;BME280;4807;48.024;11.726;2023-02-28T13:11:33;95510.56;;;1.59;60.96
9538;BME280;4807;48.024;11.726;2023-02-28T13:14:43;95507.44;;;1.35;60.65
9538;BME280;4807;48.024;11.726;2023-02-28T13:17:53;95504.03;;;1.13;62.17
9538;BME280;4807;48.024;11.726;2023-02-28T13:21:05;95502.72;;;1.29;62.65
9538;BME280;4807;48.024;11.726;2023-02-28T13:24:43;95499.97;;;1.40;61.91
9538;BME280;4807;48.024;11.726;2023-02-28T13:27:55;95496.41;;;1.41;62.10
9538;BME280;4807;48.024;11.726;2023-02-28T13:31:08;95505.81;;;1.43;61.16
9538;BME280;4807;48.024;11.726;2023-02-28T13:34:16;95502.78;;;1.48;61.77
9538;BME280;4807;48.024;11.726;2023-02-28T13:37:36;95495.91;;;1.57;61.55
9538;BME280;4807;48.024;11.726;2023-02-28T13:40:49;95497.59;;;1.67;60.78
9538;BME280;4807;48.024;11.726;2023-02-28T13:44:05;95508.03;;;1.78;61.97
9538;BME280;4807;48.024;11.726;2023-02-28T13:47:33;95505.75;;;1.64;60.11
9538;BME280;4807;48.024;11.726;2023-02-28T13:50:45;95504.44;;;1.49;60.62
9538;BME280;4807;48.024;11.726;2023-02-28T13:54:04;95510.19;;;1.33;62.06
9538;BME280;4807;48.024;11.726;2023-02-28T13:57:31;95505.16;;;1.21;61.34
9538;BME280;4807;48.024;11.726;2023-02-28T14:01:08;95510.13;;;1.24;61.90
9538;BME280;4807;48.024;11.726;2023-02-28T14:04:55;95505.50;;;1.37;62.87
9538;BME280;4807;48.024;11.726;2023-02-28T14:08:14;95506.38;;;1.47;62.53
9538;BME280;4807;48.024;11.726;2023-02-28T14:11:31;95503.66;;;1.58;62.97
9538;BME280;4807;48.024;11.726;2023-02-28T14:14:56;95505.91;;;1.72;61.65
9538;BME280;4807;48.024;11.726;2023-02-28T14:18:26;95512.03;;;1.82;62.16
9538;BME280;4807;48.024;11.726;2023-02-28T14:21:38;95494.75;;;1.89;62.25
9538;BME280;4807;48.024;11.726;2023-02-28T14:25:11;95486.50;;;1.94;62.23
9538;BME280;4807;48.024;11.726;2023-02-28T14:28:46;95492.25;;;1.88;61.97
9538;BME280;4807;48.024;11.726;2023-02-28T14:32:02;95498.09;;;1.91;62.26
9538;BME280;4807;48.024;11.726;2023-02-28T14:35:34;95493.09;;;1.88;62.30
9538;BME280;4807;48.024;11.726;2023-02-28T14:38:48;95492.81;;;1.82;61.63
9538;BME280;4807;48.024;11.726;2023-02-28T14:42:00;95496.97;;;1.84;61.90
9538;BME280;4807;48.024;11.726;2023-02-28T14:45:18;95490.31;;;1.80;62.14
9538;BME280;4807;48.024;11.726;2023-02-28T14:48:28;95487.81;;;1.79;62.93
9538;BME280;4807;48.024;11.726;2023-02-28T14:51:38;95497.94;;;1.83;62.48
9538;BME280;4807;48.024;11.726;2023-02-28T14:54:51;95494.31;;;1.75;63.32
9538;BME280;4807;48.024;11.726;2023-02-28T14:58:03;95495.16;;;1.75;63.42
9538;BME280;4807;48.024;11.726;2023-02-28T15:01:20;95490.69;;;1.66;63.60
9538;BME280;4807;48.024;11.726;2023-02-28T15:04:29;95490.81;;;1.65;63.16
9538;BME280;4807;48.024;11.726;2023-02-28T15:07:40;95492.91;;;1.71;63.45
9538;BME280;4807;48.024;11.726;2023-02-28T15:10:54;95489.19;;;1.73;62.94
9538;BME280;4807;48.024;11.726;2023-02-28T15:14:04;95492.09;;;1.70;63.46
9538;BME280;4807;48.024;11.726;2023-02-28T15:17:22;95496.66;;;1.68;63.25
9538;BME280;4807;48.024;11.726;2023-02-28T15:20:32;95490.00;;;1.64;63.43
9538;BME280;4807;48.024;11.726;2023-02-28T15:23:48;95490.56;;;1.68;63.72
9538;BME280;4807;48.024;11.726;2023-02-28T15:27:03;95501.34;;;1.74;63.76
9538;BME280;4807;48.024;11.726;2023-02-28T15:30:17;95496.53;;;1.70;64.00
9538;BME280;4807;48.024;11.726;2023-02-28T15:33:28;95498.19;;;1.80;63.44
9538;BME280;4807;48.024;11.726;2023-02-28T15:36:37;95494.03;;;1.68;64.11
9538;BME280;4807;48.024;11.726;2023-02-28T15:39:47;95498.16;;;1.71;64.24
9538;BME280;4807;48.024;11.726;2023-02-28T15:43:04;95494.44;;;1.73;63.50
9538;BME280;4807;48.024;11.726;2023-02-28T15:46:14;95501.22;;;1.76;63.80
9538;BME280;4807;48.024;11.726;2023-02-28T15:49:24;95506.97;;;1.60;64.76
9538;BME280;4807;48.024;11.726;2023-02-28T15:52:39;95502.00;;;1.57;64.87
9538;BME280;4807;48.024;11.726;2023-02-28T15:55:59;95494.91;;;1.48;64.26
9538;BME280;4807;48.024;11.726;2023-02-28T15:59:17;95502.19;;;1.35;65.38
9538;BME280;4807;48.024;11.726;2023-02-28T16:02:32;95506.81;;;1.22;65.78
9538;BME280;4807;48.024;11.726;2023-02-28T16:05:41;95503.91;;;1.25;65.67
9538;BME280;4807;48.024;11.726;2023-02-28T16:08:49;95505.84;;;1.23;65.65
9538;BME280;4807;48.024;11.726;2023-02-28T16:12:02;95501.91;;;1.07;66.32
9538;BME280;4807;48.024;11.726;2023-02-28T16:15:19;95507.22;;;0.96;67.13
9538;BME280;4807;48.024;11.726;2023-02-28T16:18:28;95510.81;;;0.95;66.93
9538;BME280;4807;48.024;11.726;2023-02-28T16:21:36;95507.72;;;0.90;67.94
9538;BME280;4807;48.024;11.726;2023-02-28T16:24:45;95508.38;;;0.83;67.58
9538;BME280;4807;48.024;11.726;2023-02-28T16:27:56;95516.88;;;0.75;68.77
9538;BME280;4807;48.024;11.726;2023-02-28T16:31:07;95517.78;;;0.64;68.42
9538;BME280;4807;48.024;11.726;2023-02-28T16:34:19;95519.59;;;0.53;68.15
9538;BME280;4807;48.024;11.726;2023-02-28T16:37:28;95518.81;;;0.41;69.61
9538;BME280;4807;48.024;11.726;2023-02-28T16:40:36;95518.03;;;0.29;69.92
9538;BME280;4807;48.024;11.726;2023-02-28T16:43:50;95520.13;;;0.15;70.02
9538;BME280;4807;48.024;11.726;2023-02-28T16:47:01;95526.59;;;-0.01;71.15
9538;BME280;4807;48.024;11.726;2023-02-28T16:50:15;95523.88;;;-0.21;70.84
9538;BME280;4807;48.024;11.726;2023-02-28T16:53:24;95525.91;;;-0.36;72.00
9538;BME280;4807;48.024;11.726;2023-02-28T16:56:33;95536.75;;;-0.52;72.81
9538;BME280;4807;48.024;11.726;2023-02-28T16:59:43;95524.16;;;-0.69;73.33
9538;BME280;4807;48.024;11.726;2023-02-28T17:02:52;95534.13;;;-0.85;73.50
9538;BME280;4807;48.024;11.726;2023-02-28T17:06:01;95526.72;;;-1.02;73.80
9538;BME280;4807;48.024;11.726;2023-02-28T17:09:17;95537.19;;;-1.02;74.74
9538;BME280;4807;48.024;11.726;2023-02-28T17:12:31;95539.06;;;-1.04;75.43
9538;BME280;4807;48.024;11.726;2023-02-28T17:15:41;95543.94;;;-1.11;75.61
9538;BME280;4807;48.024;11.726;2023-02-28T17:18:50;95545.47;;;-1.20;76.03
9538;BME280;4807;48.024;11.726;2023-02-28T17:21:59;95553.41;;;-1.21;76.31
9538;BME280;4807;48.024;11.726;2023-02-28T17:25:10;95552.34;;;-1.19;76.45
9538;BME280;4807;48.024;11.726;2023-02-28T17:28:20;95559.25;;;-1.18;76.33
9538;BME280;4807;48.024;11.726;2023-02-28T17:31:30;95562.34;;;-1.12;76.41